Time;durP1;ratioP1;P1;durP2;ratioP2;P2;SDS_P1;SDS_P2;PMS_P1;PMS_P2;Temp;Humidity;BMP_temperature;BMP_pressure;BME280_temperature;BME280_humidity;BME280_pressure;Samples;Min_cycle;Max_cycle;Signal;HPM_P1;HPM_P2
2022/01/29 00:02:18;;;;;;;3.03;2.10;;;11.80;84.90;;;;;;4995013;28;20018;-69
2022/01/29 00:04:46;;;;;;;3.30;2.03;;;11.80;85.00;;;;;;4994672;28;20030;-69
2022/01/29 00:07:12;;;;;;;2.65;1.77;;;11.80;86.10;;;;;;5009154;28;20563;-69
2022/01/29 00:09:38;;;;;;;2.65;2.03;;;11.80;85.20;;;;;;4996607;28;20014;-69
2022/01/29 00:12:04;;;;;;;2.40;1.90;;;11.80;85.20;;;;;;4997220;28;20496;-69
2022/01/29 00:14:30;;;;;;;2.80;2.30;;;11.90;85.30;;;;;;4997339;28;20408;-69
2022/01/29 00:16:56;;;;;;;3.80;2.20;;;11.90;85.00;;;;;;4996712;28;20030;-69
2022/01/29 00:19:21;;;;;;;3.35;2.30;;;11.80;84.90;;;;;;4993951;28;20034;-69
2022/01/29 00:21:47;;;;;;;3.65;2.30;;;11.80;85.20;;;;;;4990986;28;20014;-69
2022/01/29 00:24:13;;;;;;;3.85;2.17;;;11.80;85.10;;;;;;4995091;28;20073;-69
2022/01/29 00:26:38;;;;;;;2.72;2.05;;;11.80;84.60;;;;;;4994670;28;20046;-69
2022/01/29 00:29:25;;;;;;;2.65;2.15;;;11.80;85.10;;;;;;4997498;28;20519;-68
2022/01/29 00:31:50;;;;;;;2.47;1.88;;;11.80;85.20;;;;;;4995480;28;20516;-69
2022/01/29 00:34:15;;;;;;;2.60;1.60;;;11.80;85.10;;;;;;4994609;28;20030;-69
2022/01/29 00:36:41;;;;;;;1.88;1.50;;;11.80;85.50;;;;;;4993078;28;20115;-70
2022/01/29 00:39:07;;;;;;;2.47;2.00;;;11.80;85.60;;;;;;4993117;28;20031;-69
2022/01/29 00:41:32;;;;;;;3.08;1.80;;;11.80;85.30;;;;;;4994142;28;20101;-70
2022/01/29 00:43:58;;;;;;;4.25;1.80;;;11.80;85.20;;;;;;4997413;28;20516;-70
2022/01/29 00:46:24;;;;;;;2.50;1.88;;;11.70;85.40;;;;;;5008734;28;20034;-69
2022/01/29 00:48:49;;;;;;;1.83;1.55;;;11.80;85.70;;;;;;5004882;28;20033;-69
2022/01/29 00:51:15;;;;;;;1.95;1.55;;;11.80;86.00;;;;;;5008355;28;20521;-69
2022/01/29 00:53:41;;;;;;;2.20;1.70;;;11.80;85.70;;;;;;5000599;28;20065;-69
2022/01/29 00:56:09;;;;;;;1.88;1.67;;;11.80;85.60;;;;;;4994195;28;20030;-69
2022/01/29 00:58:34;;;;;;;2.28;1.88;;;11.80;85.40;;;;;;4994210;28;20484;-69
2022/01/29 01:01:01;;;;;;;3.60;1.60;;;11.80;86.00;;;;;;4991527;28;20066;-69
2022/01/29 01:03:26;;;;;;;2.60;1.80;;;11.70;85.90;;;;;;4997328;28;20030;-69
2022/01/29 01:05:52;;;;;;;2.95;1.63;;;11.80;86.00;;;;;;4996585;28;20088;-69
2022/01/29 01:08:18;;;;;;;2.05;1.63;;;11.70;85.70;;;;;;4997222;28;20033;-69
2022/01/29 01:10:43;;;;;;;2.72;1.77;;;11.70;85.50;;;;;;4994393;28;20033;-69
2022/01/29 01:13:09;;;;;;;2.10;1.60;;;11.70;86.00;;;;;;4995007;28;20041;-69
2022/01/29 01:15:35;;;;;;;2.30;1.80;;;11.70;85.90;;;;;;4995573;28;20365;-69
2022/01/29 01:18:01;;;;;;;3.22;2.00;;;11.70;86.30;;;;;;4997248;28;20030;-69
2022/01/29 01:20:27;;;;;;;2.10;1.60;;;11.70;86.30;;;;;;4998991;28;20050;-69
2022/01/29 01:22:53;;;;;;;2.45;1.83;;;11.70;86.30;;;;;;5000895;28;20034;-69
2022/01/29 01:25:19;;;;;;;2.03;1.55;;;11.70;86.10;;;;;;5013614;28;20078;-69
2022/01/29 01:27:44;;;;;;;2.00;1.65;;;11.70;86.10;;;;;;4996750;28;20110;-69
2022/01/29 01:30:11;;;;;;;2.30;1.70;;;11.70;86.10;;;;;;4998027;28;20109;-69
2022/01/29 01:32:37;;;;;;;1.88;1.60;;;11.70;86.40;;;;;;4997310;28;20060;-69
2022/01/29 01:35:13;;;;;;;2.63;1.60;;;11.70;86.40;;;;;;4997914;28;20050;-70
2022/01/29 01:37:51;;;;;;;2.55;1.75;;;11.70;86.40;;;;;;4997412;28;20040;-70
2022/01/29 01:40:18;;;;;;;1.58;1.20;;;11.70;86.60;;;;;;4996103;28;20015;-69
2022/01/29 01:42:43;;;;;;;3.83;1.70;;;11.70;86.30;;;;;;4996664;28;20060;-69
2022/01/29 01:45:10;;;;;;;2.78;1.50;;;11.70;86.70;;;;;;4998739;28;20089;-69
2022/01/29 01:47:36;;;;;;;2.42;1.55;;;11.70;86.50;;;;;;4997816;28;20042;-69
2022/01/29 01:50:03;;;;;;;1.80;1.50;;;11.70;86.70;;;;;;5001958;28;20030;-69
2022/01/29 01:52:29;;;;;;;1.88;1.55;;;11.70;86.90;;;;;;5010770;28;20029;-70
2022/01/29 01:54:55;;;;;;;3.10;1.70;;;11.70;87.10;;;;;;5013682;28;20745;-70
2022/01/29 01:57:20;;;;;;;2.67;1.70;;;11.60;87.00;;;;;;4997727;28;20532;-69
2022/01/29 01:59:46;;;;;;;2.30;1.77;;;11.70;87.10;;;;;;4997484;28;20027;-69
2022/01/29 02:02:12;;;;;;;2.42;1.75;;;11.60;87.10;;;;;;4996136;28;20030;-69
2022/01/29 02:04:38;;;;;;;2.35;1.77;;;11.60;87.20;;;;;;4997239;28;20022;-69
2022/01/29 02:07:05;;;;;;;2.20;1.67;;;11.60;87.40;;;;;;4994785;28;20026;-70
2022/01/29 02:09:31;;;;;;;2.13;1.55;;;11.60;87.20;;;;;;4996790;28;20050;-69
2022/01/29 02:12:01;;;;;;;8.55;1.92;;;11.60;87.70;;;;;;4997244;28;20027;-69
2022/01/29 02:14:31;;;;;;;3.13;2.00;;;11.50;87.10;;;;;;5004364;28;20509;-70
2022/01/29 02:16:58;;;;;;;3.05;1.95;;;11.60;87.00;;;;;;5008745;28;20037;-69
2022/01/29 02:19:24;;;;;;;2.30;1.83;;;11.60;87.40;;;;;;5009751;28;20089;-69
2022/01/29 02:21:50;;;;;;;2.83;2.00;;;11.60;87.40;;;;;;4998379;28;20053;-70
2022/01/29 02:24:15;;;;;;;2.92;2.15;;;11.60;87.70;;;;;;4999754;28;20408;-69
2022/01/29 02:26:41;;;;;;;3.35;2.10;;;11.70;87.70;;;;;;4999508;28;20520;-69
2022/01/29 02:29:06;;;;;;;2.00;1.70;;;11.60;87.30;;;;;;4999545;28;20018;-70
2022/01/29 02:31:32;;;;;;;2.63;2.30;;;11.70;87.50;;;;;;4994604;28;20481;-69
2022/01/29 02:33:58;;;;;;;2.28;1.83;;;11.70;87.50;;;;;;4998134;28;20022;-69
2022/01/29 02:36:24;;;;;;;2.28;1.83;;;11.70;87.60;;;;;;4998856;28;20050;-70
2022/01/29 02:38:50;;;;;;;3.30;2.03;;;11.70;87.50;;;;;;4999371;28;20460;-69
2022/01/29 02:41:16;;;;;;;3.53;2.17;;;11.60;87.50;;;;;;4999440;28;20488;-70
2022/01/29 02:43:50;;;;;;;2.20;1.85;;;11.70;87.80;;;;;;4995430;28;20109;-70
2022/01/29 02:46:28;;;;;;;2.53;1.92;;;11.60;87.20;;;;;;4996351;28;20776;-70
2022/01/29 02:48:56;;;;;;;3.00;2.22;;;11.60;87.40;;;;;;4996981;28;20065;-70
2022/01/29 02:51:23;;;;;;;3.03;2.22;;;11.60;87.70;;;;;;5004649;28;20420;-70
2022/01/29 02:53:48;;;;;;;3.15;2.13;;;11.60;87.70;;;;;;5010710;28;20040;-69
2022/01/29 02:56:14;;;;;;;2.88;2.05;;;11.70;88.00;;;;;;5005595;28;20524;-69
2022/01/29 02:58:40;;;;;;;2.60;1.90;;;11.70;87.40;;;;;;4996417;28;20030;-69
2022/01/29 03:01:07;;;;;;;4.13;2.58;;;11.70;88.40;;;;;;4994276;28;20030;-69
2022/01/29 03:03:33;;;;;;;2.47;2.00;;;11.60;87.40;;;;;;4994383;28;20026;-70
2022/01/29 03:06:01;;;;;;;3.85;2.22;;;11.60;87.90;;;;;;4995485;28;20158;-70
2022/01/29 03:08:27;;;;;;;4.07;2.17;;;11.60;88.00;;;;;;4996250;28;20109;-70
2022/01/29 03:10:52;;;;;;;2.72;2.03;;;11.60;88.10;;;;;;4996161;28;20673;-69
2022/01/29 03:13:18;;;;;;;3.15;2.40;;;11.60;88.00;;;;;;4994733;28;24545;-69
2022/01/29 03:15:43;;;;;;;3.83;2.33;;;11.70;88.00;;;;;;4995017;28;20027;-69
2022/01/29 03:18:09;;;;;;;3.45;2.10;;;11.60;88.00;;;;;;4996006;28;20529;-69
2022/01/29 03:20:35;;;;;;;3.08;2.28;;;11.60;88.00;;;;;;4995448;28;20077;-69
2022/01/29 03:23:01;;;;;;;3.72;2.53;;;11.70;87.80;;;;;;5001896;28;20488;-70
2022/01/29 03:25:26;;;;;;;3.42;2.90;;;11.70;88.00;;;;;;5010537;28;20581;-69
2022/01/29 03:27:52;;;;;;;3.85;2.40;;;11.70;88.00;;;;;;4997496;28;20030;-70
2022/01/29 03:30:18;;;;;;;3.38;2.63;;;11.70;88.00;;;;;;4998400;28;20034;-70
2022/01/29 03:32:44;;;;;;;4.03;2.40;;;11.70;87.70;;;;;;4998218;28;20527;-70
2022/01/29 03:35:11;;;;;;;3.65;2.60;;;11.70;88.00;;;;;;4995022;28;20038;-70
2022/01/29 03:37:37;;;;;;;4.10;2.90;;;11.70;87.70;;;;;;4995458;28;20045;-69
2022/01/29 03:40:05;;;;;;;3.00;2.50;;;11.70;87.50;;;;;;4993217;28;20022;-70
2022/01/29 03:42:36;;;;;;;4.05;2.83;;;11.60;88.00;;;;;;4994927;28;20038;-70
2022/01/29 03:45:02;;;;;;;3.20;2.55;;;11.60;88.00;;;;;;4993829;28;20042;-69
2022/01/29 03:47:28;;;;;;;3.40;2.70;;;11.60;88.00;;;;;;4995589;28;20085;-69
2022/01/29 03:49:53;;;;;;;3.92;2.85;;;11.60;88.00;;;;;;4995287;28;20026;-70
2022/01/29 03:52:19;;;;;;;3.78;2.92;;;11.60;87.90;;;;;;5002455;28;20037;-69
2022/01/29 03:54:44;;;;;;;3.30;2.70;;;11.60;88.00;;;;;;5003347;28;20054;-69
2022/01/29 03:57:10;;;;;;;3.35;2.78;;;11.70;88.10;;;;;;4999500;28;20492;-69
2022/01/29 03:59:36;;;;;;;4.10;3.13;;;11.70;88.10;;;;;;5001659;28;20034;-69
2022/01/29 04:02:01;;;;;;;3.70;3.05;;;11.70;87.70;;;;;;4993548;28;20042;-69
2022/01/29 04:04:27;;;;;;;4.45;3.13;;;11.70;88.00;;;;;;5000106;28;20015;-69
2022/01/29 04:06:53;;;;;;;4.85;3.08;;;11.60;88.00;;;;;;4992727;28;20050;-70
2022/01/29 04:09:20;;;;;;;4.07;3.15;;;11.60;87.90;;;;;;4994884;28;20433;-70
2022/01/29 04:11:45;;;;;;;4.22;2.90;;;11.60;88.00;;;;;;4997606;28;20037;-69
2022/01/29 04:14:19;;;;;;;4.07;2.63;;;11.60;88.00;;;;;;4997844;28;20019;-69
2022/01/29 04:16:44;;;;;;;;;;;11.70;88.10;;;;;;4994647;28;20029;-69
2022/01/29 04:19:11;;;;;;;3.95;3.03;;;11.60;88.00;;;;;;4995132;28;19905;-70
2022/01/29 04:21:37;;;;;;;5.00;3.45;;;11.60;88.00;;;;;;4996687;28;20062;-70
2022/01/29 04:24:04;;;;;;;4.47;3.22;;;11.60;88.10;;;;;;4997574;28;20121;-69
2022/01/29 04:26:34;;;;;;;4.40;3.30;;;11.60;88.10;;;;;;4997296;28;20408;-69
2022/01/29 04:29:06;;;;;;;4.95;3.10;;;11.70;88.40;;;;;;4997546;28;20504;-70
2022/01/29 04:31:44;;;;;;;5.47;3.60;;;11.70;88.10;;;;;;4994929;28;20489;-70
2022/01/29 04:34:10;;;;;;;5.05;3.38;;;11.60;88.00;;;;;;4992920;28;20019;-70
2022/01/29 04:36:35;;;;;;;3.88;3.05;;;11.60;88.10;;;;;;5000535;28;20092;-70
2022/01/29 04:39:01;;;;;;;3.92;2.95;;;11.60;88.40;;;;;;5007831;28;20034;-69
2022/01/29 04:41:27;;;;;;;4.18;3.05;;;11.60;88.10;;;;;;5002714;28;20037;-69
2022/01/29 04:43:53;;;;;;;4.13;3.28;;;11.60;88.60;;;;;;4999206;28;20019;-69
2022/01/29 04:46:18;;;;;;;3.88;2.90;;;11.60;88.00;;;;;;5000987;28;20546;-69
2022/01/29 04:48:44;;;;;;;4.10;3.20;;;11.70;88.30;;;;;;4993748;28;20030;-69
2022/01/29 04:51:09;;;;;;;3.60;2.50;;;11.70;88.30;;;;;;4994509;28;20034;-70
2022/01/29 04:53:35;;;;;;;4.25;2.88;;;11.70;88.10;;;;;;4994825;28;20018;-69
2022/01/29 04:56:01;;;;;;;4.22;2.65;;;11.60;88.10;;;;;;4998665;28;20088;-70
2022/01/29 04:58:27;;;;;;;3.60;2.35;;;11.60;88.20;;;;;;4998405;28;20026;-69
2022/01/29 05:00:53;;;;;;;2.97;2.30;;;11.60;88.20;;;;;;4996122;28;20105;-69
2022/01/29 05:03:18;;;;;;;2.97;2.40;;;11.60;88.60;;;;;;4998330;28;20022;-69
2022/01/29 05:05:44;;;;;;;3.35;2.30;;;11.60;88.40;;;;;;4996642;28;20034;-69
2022/01/29 05:08:12;;;;;;;3.20;2.33;;;11.70;88.70;;;;;;5004326;28;20526;-69
2022/01/29 05:10:38;;;;;;;3.63;2.53;;;11.60;88.50;;;;;;5011524;28;20038;-69
2022/01/29 05:13:13;;;;;;;3.95;2.45;;;11.60;88.40;;;;;;4999084;28;20026;-69
2022/01/29 05:29:04;;;;;;;3.88;2.67;;;11.60;88.60;;;;;;5000801;28;20546;-69
2022/01/29 05:31:29;;;;;;;4.82;3.50;;;11.60;88.60;;;;;;4995021;28;20022;-69
2022/01/29 05:33:55;;;;;;;3.45;2.72;;;11.60;88.70;;;;;;4998329;28;20417;-69
2022/01/29 05:36:21;;;;;;;4.18;2.53;;;11.70;88.90;;;;;;5000292;28;20050;-69
2022/01/29 05:38:47;;;;;;;4.22;2.78;;;11.60;88.60;;;;;;5000133;28;20026;-69
2022/01/29 05:41:12;;;;;;;4.82;3.03;;;11.60;88.40;;;;;;5000271;28;20076;-69
2022/01/29 05:43:38;;;;;;;3.28;2.60;;;11.60;88.50;;;;;;4997263;28;20489;-69
2022/01/29 05:46:04;;;;;;;3.53;2.50;;;11.60;88.20;;;;;;4997796;28;20113;-69
2022/01/29 05:48:29;;;;;;;3.67;2.33;;;11.60;88.50;;;;;;4999056;28;20027;-69
2022/01/29 05:50:55;;;;;;;4.68;2.90;;;11.70;88.40;;;;;;4998768;28;20050;-69
2022/01/29 05:53:21;;;;;;;4.00;2.80;;;11.60;88.40;;;;;;5000482;28;20054;-69
2022/01/29 05:55:47;;;;;;;3.60;2.50;;;11.60;88.50;;;;;;4998306;28;20121;-69
2022/01/29 05:58:13;;;;;;;3.08;2.53;;;11.60;88.40;;;;;;4997982;28;20019;-69
2022/01/29 06:00:39;;;;;;;2.92;2.00;;;11.70;88.70;;;;;;4999000;28;20500;-69
2022/01/29 06:03:09;;;;;;;4.00;2.22;;;11.70;88.70;;;;;;5005265;28;20468;-69
2022/01/29 06:05:35;;;;;;;3.45;2.05;;;11.70;88.90;;;;;;5002337;28;20070;-69
2022/01/29 06:08:01;;;;;;;3.45;2.20;;;11.70;88.70;;;;;;4997355;28;20015;-66
2022/01/29 06:10:27;;;;;;;3.10;2.33;;;11.60;88.70;;;;;;4997366;28;20081;-70
2022/01/29 06:13:14;;;;;;;3.67;2.05;;;11.60;88.50;;;;;;4995027;28;20085;-69
2022/01/29 06:15:45;;;;;;;2.08;1.60;;;11.60;88.80;;;;;;4998906;28;20030;-69
2022/01/29 06:18:16;;;;;;;2.28;1.60;;;11.60;89.00;;;;;;5000793;28;20030;-68
2022/01/29 06:20:42;;;;;;;3.33;2.13;;;11.60;89.00;;;;;;5002755;28;20050;-68
2022/01/29 06:23:10;;;;;;;3.38;2.00;;;11.60;89.00;;;;;;4997099;28;20026;-68
2022/01/29 06:25:35;;;;;;;2.78;1.77;;;11.60;89.20;;;;;;4997012;28;20029;-68
2022/01/29 06:28:01;;;;;;;2.35;1.50;;;11.60;89.50;;;;;;4994407;28;20030;-68
2022/01/29 06:30:27;;;;;;;2.03;1.35;;;11.60;88.90;;;;;;4996798;28;20034;-68
2022/01/29 06:32:53;;;;;;;2.92;1.25;;;11.60;89.20;;;;;;4996973;28;20113;-69
2022/01/29 06:35:19;;;;;;;2.28;1.70;;;11.60;89.00;;;;;;4996575;28;20414;-69
2022/01/29 06:37:44;;;;;;;2.38;1.48;;;11.60;88.80;;;;;;4997004;28;20101;-69
2022/01/29 06:40:10;;;;;;;1.77;1.40;;;11.60;89.20;;;;;;4994621;28;20501;-69
2022/01/29 06:42:36;;;;;;;2.25;1.52;;;11.60;88.90;;;;;;4996051;28;20126;-69
2022/01/29 06:45:03;;;;;;;2.20;1.35;;;11.60;88.80;;;;;;4995485;28;20536;-69
2022/01/29 06:47:28;;;;;;;2.35;1.40;;;11.60;89.10;;;;;;4996444;28;20018;-70
2022/01/29 06:49:54;;;;;;;1.75;1.20;;;11.60;89.00;;;;;;4996396;28;20026;-69
2022/01/29 06:52:20;;;;;;;1.92;1.33;;;11.60;89.20;;;;;;5010432;28;20045;-69
2022/01/29 06:54:46;;;;;;;1.95;1.38;;;11.60;89.30;;;;;;4992900;28;20027;-71
2022/01/29 06:57:11;;;;;;;2.83;1.40;;;11.60;88.70;;;;;;4995841;28;20034;-69
2022/01/29 06:59:37;;;;;;;2.35;1.38;;;11.50;88.60;;;;;;4996393;28;20026;-70
2022/01/29 07:02:03;;;;;;;2.05;1.30;;;11.50;89.60;;;;;;4999908;28;20033;-69
2022/01/29 07:04:28;;;;;;;1.98;1.23;;;11.50;89.20;;;;;;5010144;28;20034;-69
2022/01/29 07:06:54;;;;;;;2.22;1.30;;;11.50;89.30;;;;;;4997797;28;20034;-70
2022/01/29 07:09:19;;;;;;;1.95;1.30;;;11.50;89.20;;;;;;4998240;28;20037;-70
2022/01/29 07:11:46;;;;;;;2.78;1.90;;;11.50;89.40;;;;;;4998405;28;20180;-69
2022/01/29 07:14:17;;;;;;;2.60;1.50;;;11.50;88.80;;;;;;4998821;28;20020;-69
2022/01/29 07:16:43;;;;;;;3.10;1.52;;;11.50;89.20;;;;;;4994924;28;20018;-70
2022/01/29 07:19:09;;;;;;;2.30;1.30;;;11.60;89.30;;;;;;4996006;28;20108;-70
2022/01/29 07:21:36;;;;;;;1.63;1.40;;;11.60;89.40;;;;;;4996968;28;20088;-70
2022/01/29 07:24:02;;;;;;;2.42;1.48;;;11.60;89.00;;;;;;4998509;28;20030;-69
2022/01/29 07:26:28;;;;;;;2.35;1.50;;;11.60;89.60;;;;;;4997793;28;20057;-69
2022/01/29 07:28:53;;;;;;;2.08;1.50;;;11.60;89.40;;;;;;4995646;28;20524;-69
2022/01/29 07:31:20;;;;;;;2.17;1.48;;;11.60;89.00;;;;;;4994346;28;20069;-69
2022/01/29 07:33:45;;;;;;;2.15;1.65;;;11.60;89.40;;;;;;4993804;28;20054;-70
2022/01/29 07:36:11;;;;;;;2.38;1.67;;;11.60;89.50;;;;;;4995131;28;20093;-69
2022/01/29 07:38:37;;;;;;;2.63;1.80;;;11.60;89.50;;;;;;4995650;28;20018;-69
2022/01/29 07:41:02;;;;;;;1.92;1.50;;;11.60;89.20;;;;;;4995313;28;20038;-69
2022/01/29 07:43:28;;;;;;;2.28;1.60;;;11.50;88.80;;;;;;4995212;28;20022;-69
2022/01/29 07:45:53;;;;;;;2.85;1.70;;;11.60;89.30;;;;;;4991778;28;20034;-70
2022/01/29 07:48:19;;;;;;;3.55;1.83;;;11.60;89.50;;;;;;4995509;28;20527;-70
2022/01/29 07:50:45;;;;;;;2.63;1.75;;;11.60;89.30;;;;;;4994957;28;20031;-69
2022/01/29 07:53:11;;;;;;;3.00;2.10;;;11.50;89.00;;;;;;4994005;28;20492;-70
2022/01/29 07:55:36;;;;;;;2.95;2.05;;;11.50;89.30;;;;;;4994801;28;20032;-70
2022/01/29 07:58:03;;;;;;;2.63;1.98;;;11.50;89.10;;;;;;4992724;28;20111;-69
2022/01/29 08:00:29;;;;;;;3.28;1.65;;;11.50;89.30;;;;;;4997988;28;20029;-69
2022/01/29 08:02:55;;;;;;;3.42;1.90;;;11.60;90.00;;;;;;4997830;28;20543;-70
2022/01/29 08:05:20;;;;;;;3.00;1.95;;;11.60;89.80;;;;;;4997729;28;20065;-69
2022/01/29 08:07:46;;;;;;;3.30;2.30;;;11.60;89.50;;;;;;4995177;28;20562;-70
2022/01/29 08:10:12;;;;;;;2.45;1.80;;;11.60;89.60;;;;;;4993419;28;20492;-70
2022/01/29 08:12:37;;;;;;;3.60;1.80;;;11.60;90.20;;;;;;4993711;28;20061;-70
2022/01/29 08:15:04;;;;;;;3.58;2.00;;;11.60;89.60;;;;;;5005951;28;20080;-70
2022/01/29 08:17:30;;;;;;;3.53;1.80;;;11.70;89.70;;;;;;5002122;28;20045;-70
2022/01/29 08:19:57;;;;;;;2.80;1.70;;;11.70;89.70;;;;;;4994773;28;20393;-77
2022/01/29 08:22:24;;;;;;;3.45;2.22;;;11.70;89.40;;;;;;4994256;28;20037;-77
2022/01/29 08:24:50;;;;;;;3.00;1.80;;;11.70;89.70;;;;;;4998825;28;20034;-61
2022/01/29 08:27:16;;;;;;;2.83;1.70;;;11.80;90.10;;;;;;5007238;28;20076;-62
2022/01/29 08:29:41;;;;;;;2.88;1.60;;;11.90;90.00;;;;;;5002858;28;20074;-64
2022/01/29 08:32:08;;;;;;;2.80;1.70;;;11.90;89.50;;;;;;4999019;28;20027;-61
2022/01/29 08:34:33;;;;;;;2.72;1.70;;;11.90;89.50;;;;;;4998824;28;20056;-62
2022/01/29 08:37:02;;;;;;;2.33;1.60;;;12.00;89.30;;;;;;4996219;28;20129;-62
2022/01/29 08:39:28;;;;;;;2.40;1.75;;;12.00;88.90;;;;;;4997845;28;20030;-62
2022/01/29 08:41:54;;;;;;;2.22;1.67;;;12.00;89.20;;;;;;4998070;28;20164;-62
2022/01/29 08:44:19;;;;;;;2.95;1.60;;;12.00;88.80;;;;;;5021364;28;20112;-63
2022/01/29 08:46:45;;;;;;;3.15;1.80;;;12.00;88.50;;;;;;5019212;28;20037;-62
2022/01/29 08:49:11;;;;;;;2.95;2.00;;;12.00;88.90;;;;;;4996407;28;20481;-62
2022/01/29 08:51:36;;;;;;;2.00;1.58;;;12.10;89.20;;;;;;4997783;28;20026;-62
2022/01/29 08:54:02;;;;;;;2.05;1.48;;;12.10;88.90;;;;;;4998476;28;20031;-62
2022/01/29 08:56:28;;;;;;;2.85;1.40;;;12.10;88.80;;;;;;5000408;28;20029;-62
2022/01/29 08:58:54;;;;;;;2.60;1.25;;;12.10;88.80;;;;;;4997079;28;20109;-62
2022/01/29 09:01:19;;;;;;;2.30;1.52;;;12.10;88.70;;;;;;5011378;28;20042;-62
2022/01/29 09:03:45;;;;;;;3.13;1.77;;;12.20;88.90;;;;;;5003991;28;20022;-60
2022/01/29 09:06:11;;;;;;;2.20;1.42;;;12.20;89.10;;;;;;4998980;28;20042;-60
2022/01/29 09:08:38;;;;;;;2.33;1.52;;;12.30;88.90;;;;;;4998496;28;20026;-59
2022/01/29 09:11:04;;;;;;;2.85;1.45;;;12.30;88.60;;;;;;5004684;28;20060;-61
2022/01/29 09:13:30;;;;;;;2.00;1.38;;;12.30;88.40;;;;;;5011314;28;20449;-59
2022/01/29 09:15:56;;;;;;;2.00;1.50;;;12.30;87.90;;;;;;5010260;28;20030;-59
2022/01/29 09:18:22;;;;;;;2.35;1.60;;;12.30;88.20;;;;;;5006692;28;20030;-61
2022/01/29 09:20:47;;;;;;;2.22;1.25;;;12.30;88.60;;;;;;5012453;28;20022;-59
2022/01/29 09:23:13;;;;;;;1.77;1.17;;;12.30;88.60;;;;;;5006322;28;20511;-59
2022/01/29 09:25:40;;;;;;;2.47;1.30;;;12.40;88.30;;;;;;5006571;28;20033;-74
2022/01/29 09:28:07;;;;;;;1.77;1.23;;;12.40;88.40;;;;;;5021117;28;20468;-70
2022/01/29 09:30:34;;;;;;;1.52;1.00;;;12.30;88.00;;;;;;5001813;28;20072;-70
2022/01/29 09:33:00;;;;;;;2.55;1.02;;;12.20;88.00;;;;;;5010150;28;20036;-69
2022/01/29 09:35:26;;;;;;;1.45;0.90;;;12.20;88.30;;;;;;5009304;28;20038;-71
2022/01/29 09:37:53;;;;;;;1.33;0.90;;;12.40;89.40;;;;;;5005718;28;20034;-72
2022/01/29 09:40:19;;;;;;;1.45;0.95;;;12.40;88.40;;;;;;5011923;28;20088;-70
2022/01/29 09:42:47;;;;;;;1.10;0.80;;;12.50;88.70;;;;;;5003082;28;20586;-70
2022/01/29 09:45:15;;;;;;;2.75;1.17;;;12.50;87.90;;;;;;5009195;28;20022;-71
2022/01/29 09:47:42;;;;;;;1.30;0.82;;;12.40;87.50;;;;;;5002973;28;20030;-74
2022/01/29 09:50:09;;;;;;;1.88;1.13;;;12.40;87.60;;;;;;5007150;28;20511;-71
2022/01/29 09:52:35;;;;;;;1.88;1.20;;;12.40;88.00;;;;;;5008316;28;20044;-70
2022/01/29 09:55:01;;;;;;;2.03;1.20;;;12.40;87.40;;;;;;5006771;28;20029;-71
2022/01/29 09:57:29;;;;;;;1.70;1.30;;;12.40;87.00;;;;;;5007714;28;20064;-71
2022/01/29 09:59:54;;;;;;;1.50;1.10;;;12.30;86.90;;;;;;4999225;28;20117;-71
2022/01/29 10:02:20;;;;;;;1.63;1.30;;;12.20;86.70;;;;;;5008186;28;20169;-71
2022/01/29 10:04:51;;;;;;;1.23;1.10;;;12.20;87.60;;;;;;5010437;28;20044;-70
2022/01/29 10:07:25;;;;;;;1.63;1.33;;;12.20;88.00;;;;;;5002420;28;20067;-70
2022/01/29 10:09:52;;;;;;;1.52;1.17;;;12.20;87.30;;;;;;5009855;28;20037;-70
2022/01/29 10:12:36;;;;;;;1.95;1.25;;;12.20;87.20;;;;;;5000302;28;20108;-70
2022/01/29 10:15:05;;;;;;;1.92;1.00;;;12.10;87.60;;;;;;5008093;28;20084;-69
2022/01/29 10:17:43;;;;;;;1.35;1.13;;;12.10;87.70;;;;;;5003803;28;20394;-70
2022/01/29 10:20:13;;;;;;;2.30;1.13;;;12.20;88.30;;;;;;5005891;28;20030;-70
2022/01/29 10:22:39;;;;;;;1.50;0.90;;;12.20;87.50;;;;;;5010733;28;20033;-71
2022/01/29 10:25:18;;;;;;;1.55;0.90;;;12.20;87.40;;;;;;5002545;28;20528;-71
2022/01/29 10:28:19;;;;;;;1.27;0.80;;;12.20;87.50;;;;;;5012756;28;20029;-70
2022/01/29 10:30:53;;;;;;;2.15;1.40;;;12.10;87.20;;;;;;5002286;28;20033;-70
2022/01/29 10:33:27;;;;;;;1.35;1.08;;;12.20;87.50;;;;;;4997115;28;20442;-70
2022/01/29 10:35:56;;;;;;;1.38;0.90;;;12.20;87.60;;;;;;4995044;28;20381;-72
2022/01/29 10:38:42;;;;;;;1.60;0.80;;;12.20;87.20;;;;;;4999378;28;20026;-71
2022/01/29 10:41:27;;;;;;;1.63;0.75;;;12.30;87.80;;;;;;5005588;28;20037;-70
2022/01/29 10:43:58;;;;;;;0.90;0.60;;;12.30;87.20;;;;;;5001948;28;20560;-70
2022/01/29 10:46:29;;;;;;;1.52;0.50;;;12.30;86.40;;;;;;5011091;28;20030;-69
2022/01/29 10:48:56;;;;;;;1.92;0.90;;;12.30;87.30;;;;;;5000585;28;20535;-69
2022/01/29 10:51:21;;;;;;;2.55;0.90;;;12.40;86.90;;;;;;5008460;28;20029;-70
2022/01/29 10:53:47;;;;;;;1.58;0.95;;;12.40;85.90;;;;;;5000969;28;20033;-70
2022/01/29 10:56:13;;;;;;;0.90;0.60;;;12.40;86.20;;;;;;5007611;28;20034;-70
2022/01/29 10:58:40;;;;;;;1.13;0.70;;;12.40;86.30;;;;;;5009860;28;20041;-70
2022/01/29 11:01:17;;;;;;;1.00;0.70;;;12.40;86.30;;;;;;5009587;28;20068;-70
2022/01/29 11:03:44;;;;;;;0.80;0.55;;;12.40;86.60;;;;;;5006771;28;20018;-69
2022/01/29 11:06:13;;;;;;;3.15;0.95;;;12.40;87.90;;;;;;5000539;28;20512;-70
2022/01/29 11:08:40;;;;;;;0.90;0.63;;;12.40;86.30;;;;;;5007396;28;20037;-69
2022/01/29 11:11:10;;;;;;;1.90;1.20;;;12.50;85.80;;;;;;5005614;28;20026;-69
2022/01/29 11:13:36;;;;;;;2.33;1.48;;;12.40;85.80;;;;;;5003598;28;20022;-70
2022/01/29 11:16:03;;;;;;;2.10;1.10;;;12.40;85.70;;;;;;5018124;28;20037;-70
2022/01/29 11:18:31;;;;;;;1.30;0.95;;;12.30;85.50;;;;;;5007107;28;20026;-69
2022/01/29 11:20:57;;;;;;;1.05;0.80;;;12.30;85.90;;;;;;5006845;28;20018;-68
2022/01/29 11:23:23;;;;;;;2.15;0.93;;;12.30;85.80;;;;;;5005755;28;20030;-69
2022/01/29 11:25:54;;;;;;;2.58;1.35;;;12.30;85.90;;;;;;5002642;28;20113;-70
2022/01/29 11:28:22;;;;;;;2.70;2.10;;;12.30;86.00;;;;;;5010534;28;20045;-70
2022/01/29 11:31:13;;;;;;;1.40;1.20;;;12.40;86.00;;;;;;4999028;28;20520;-68
2022/01/29 11:33:57;;;;;;;1.45;1.27;;;12.40;85.90;;;;;;5014578;28;20105;-69
2022/01/29 11:36:46;;;;;;;1.52;1.00;;;12.40;86.30;;;;;;5013213;28;20041;-69
2022/01/29 11:39:22;;;;;;;2.03;1.45;;;12.30;85.70;;;;;;5006432;28;20069;-68
2022/01/29 11:42:15;;;;;;;3.13;1.20;;;12.30;85.30;;;;;;5005615;28;20522;-69
2022/01/29 11:44:42;;;;;;;2.70;1.13;;;12.20;85.80;;;;;;4998406;28;20030;-67
2022/01/29 11:47:26;;;;;;;1.75;1.27;;;12.20;85.30;;;;;;4999698;28;20046;-68
2022/01/29 11:50:13;;;;;;;1.40;0.98;;;12.20;85.90;;;;;;5007130;28;20033;-69
2022/01/29 11:52:54;;;;;;;1.25;0.60;;;12.20;85.50;;;;;;4994933;28;20025;-68
2022/01/29 11:55:33;;;;;;;1.65;1.00;;;12.30;85.70;;;;;;5000290;28;20042;-68
2022/01/29 11:58:16;;;;;;;0.98;0.70;;;12.30;85.60;;;;;;5006513;28;20489;-68
2022/01/29 12:00:45;;;;;;;1.30;0.90;;;12.40;85.90;;;;;;5007965;28;20610;-67
2022/01/29 12:03:37;;;;;;;1.48;0.63;;;12.40;85.30;;;;;;4995560;28;20105;-68
2022/01/29 12:08:57;;;;;;;1.70;1.08;;;12.30;85.30;;;;;;4994948;28;20030;-67
2022/01/29 12:11:26;;;;;;;2.75;1.58;;;12.40;85.10;;;;;;4994773;28;20034;-68
2022/01/29 12:14:13;;;;;;;2.35;1.20;;;12.30;85.00;;;;;;4995001;28;20037;-68
2022/01/29 12:16:54;;;;;;;1.98;1.35;;;12.40;85.10;;;;;;4994765;28;20044;-68
2022/01/29 12:19:40;;;;;;;4.10;2.20;;;12.50;84.90;;;;;;4993416;28;20108;-67
2022/01/29 12:22:23;;;;;;;3.70;2.30;;;12.40;84.90;;;;;;5008861;28;20036;-70
2022/01/29 12:24:54;;;;;;;4.55;2.78;;;12.50;85.20;;;;;;4995778;28;20114;-70
2022/01/29 12:27:22;;;;;;;4.28;3.00;;;12.50;84.80;;;;;;4994766;28;20038;-69
2022/01/29 12:29:48;;;;;;;3.30;2.25;;;12.40;84.20;;;;;;4994218;28;20023;-69
2022/01/29 12:32:13;;;;;;;4.35;2.38;;;12.40;84.50;;;;;;4993459;28;20022;-69
2022/01/29 12:34:40;;;;;;;2.70;1.92;;;12.40;84.20;;;;;;4997838;28;20022;-69
2022/01/29 12:37:13;;;;;;;3.20;1.90;;;12.40;85.00;;;;;;5008420;28;20393;-69
2022/01/29 12:39:40;;;;;;;;;;;12.40;84.60;;;;;;4997124;28;20054;-69
2022/01/29 12:42:23;;;;;;;3.35;1.67;;;12.40;84.90;;;;;;5002374;28;20275;-69
2022/01/29 12:44:51;;;;;;;2.38;1.40;;;12.40;84.60;;;;;;5003437;28;20045;-68
2022/01/29 12:47:29;;;;;;;2.80;1.30;;;12.40;84.50;;;;;;5000298;28;20038;-69
2022/01/29 12:49:55;;;;;;;2.63;1.30;;;12.40;84.70;;;;;;4999264;28;20040;-68
2022/01/29 12:52:22;;;;;;;2.22;1.30;;;12.40;84.60;;;;;;5000615;28;20112;-69
2022/01/29 12:54:55;;;;;;;2.17;1.27;;;12.50;85.20;;;;;;5007246;28;20030;-71
2022/01/29 12:57:21;;;;;;;2.13;1.30;;;12.50;84.80;;;;;;4999661;28;20085;-70
2022/01/29 12:59:48;;;;;;;2.08;1.10;;;12.40;84.30;;;;;;5004107;28;20030;-70
2022/01/29 13:02:14;;;;;;;1.45;1.20;;;12.40;84.30;;;;;;5007221;28;20480;-71
2022/01/29 13:04:44;;;;;;;1.70;1.30;;;12.40;84.10;;;;;;5000803;28;20117;-70
2022/01/29 13:07:10;;;;;;;2.40;1.50;;;12.40;84.50;;;;;;5007213;28;20083;-70
2022/01/29 13:09:37;;;;;;;1.65;1.27;;;12.40;84.60;;;;;;4999716;28;20050;-70